sensor_id;sensor_type;location;lat;lon;timestamp;pressure;altitude;pressure_sealevel;temperature
72054;BMP280;59918;51.280;7.950;2023-03-30T00:02:11;97242.66;;;12.54
72054;BMP280;59918;51.280;7.950;2023-03-30T00:04:37;97238.50;;;12.53
72054;BMP280;59918;51.280;7.950;2023-03-30T00:07:02;97241.53;;;12.50
72054;BMP280;59918;51.280;7.950;2023-03-30T00:09:27;97235.81;;;12.48
72054;BMP280;59918;51.280;7.950;2023-03-30T00:11:52;97237.63;;;12.48
72054;BMP280;59918;51.280;7.950;2023-03-30T00:14:17;97231.34;;;12.44
72054;BMP280;59918;51.280;7.950;2023-03-30T00:16:43;97231.25;;;12.39
72054;BMP280;59918;51.280;7.950;2023-03-30T00:19:08;97234.72;;;12.33
72054;BMP280;59918;51.280;7.950;2023-03-30T00:21:33;97245.53;;;12.30
72054;BMP280;59918;51.280;7.950;2023-03-30T00:23:58;97224.56;;;12.27
72054;BMP280;59918;51.280;7.950;2023-03-30T00:26:23;97223.00;;;12.26
72054;BMP280;59918;51.280;7.950;2023-03-30T00:28:48;97216.06;;;12.26
72054;BMP280;59918;51.280;7.950;2023-03-30T00:31:13;97225.34;;;12.27
72054;BMP280;59918;51.280;7.950;2023-03-30T00:33:38;97224.78;;;12.25
72054;BMP280;59918;51.280;7.950;2023-03-30T00:36:04;97214.94;;;12.22
72054;BMP280;59918;51.280;7.950;2023-03-30T00:38:29;97215.16;;;12.21
72054;BMP280;59918;51.280;7.950;2023-03-30T00:40:55;97211.59;;;12.22
72054;BMP280;59918;51.280;7.950;2023-03-30T00:43:21;97204.28;;;12.19
72054;BMP280;59918;51.280;7.950;2023-03-30T00:45:46;97201.72;;;12.19
72054;BMP280;59918;51.280;7.950;2023-03-30T00:48:18;97201.03;;;12.23
72054;BMP280;59918;51.280;7.950;2023-03-30T00:50:45;97205.81;;;12.31
72054;BMP280;59918;51.280;7.950;2023-03-30T00:53:22;97209.63;;;12.40
72054;BMP280;59918;51.280;7.950;2023-03-30T00:55:48;97192.91;;;12.42
72054;BMP280;59918;51.280;7.950;2023-03-30T00:58:14;97190.88;;;12.44
72054;BMP280;59918;51.280;7.950;2023-03-30T01:00:40;97187.75;;;12.42
72054;BMP280;59918;51.280;7.950;2023-03-30T01:03:08;97175.53;;;12.49
72054;BMP280;59918;51.280;7.950;2023-03-30T01:05:34;97188.50;;;12.54
72054;BMP280;59918;51.280;7.950;2023-03-30T01:08:01;97165.28;;;12.54
72054;BMP280;59918;51.280;7.950;2023-03-30T01:10:27;97158.56;;;12.53
72054;BMP280;59918;51.280;7.950;2023-03-30T01:12:52;97168.34;;;12.51
72054;BMP280;59918;51.280;7.950;2023-03-30T01:15:17;97173.50;;;12.51
72054;BMP280;59918;51.280;7.950;2023-03-30T01:25:43;97148.75;;;12.39
72054;BMP280;59918;51.280;7.950;2023-03-30T01:43:46;97141.25;;;12.10
72054;BMP280;59918;51.280;7.950;2023-03-30T01:48:44;97125.13;;;12.03
72054;BMP280;59918;51.280;7.950;2023-03-30T01:51:11;97125.13;;;12.03
72054;BMP280;59918;51.280;7.950;2023-03-30T01:53:41;97122.66;;;12.08
72054;BMP280;59918;51.280;7.950;2023-03-30T01:56:14;97131.72;;;12.10
72054;BMP280;59918;51.280;7.950;2023-03-30T01:58:48;97128.91;;;12.12
72054;BMP280;59918;51.280;7.950;2023-03-30T02:01:15;97113.19;;;12.13
72054;BMP280;59918;51.280;7.950;2023-03-30T02:03:41;97113.53;;;12.17
72054;BMP280;59918;51.280;7.950;2023-03-30T02:06:11;97114.09;;;12.19
72054;BMP280;59918;51.280;7.950;2023-03-30T02:08:39;97118.78;;;12.22
72054;BMP280;59918;51.280;7.950;2023-03-30T02:11:05;97118.31;;;12.25
72054;BMP280;59918;51.280;7.950;2023-03-30T02:13:30;97133.34;;;12.28
72054;BMP280;59918;51.280;7.950;2023-03-30T02:15:58;97130.84;;;12.33
72054;BMP280;59918;51.280;7.950;2023-03-30T02:18:25;97122.19;;;12.38
72054;BMP280;59918;51.280;7.950;2023-03-30T02:20:50;97114.00;;;12.41
72054;BMP280;59918;51.280;7.950;2023-03-30T02:23:17;97124.31;;;12.41
72054;BMP280;59918;51.280;7.950;2023-03-30T02:25:43;97130.03;;;12.43
72054;BMP280;59918;51.280;7.950;2023-03-30T02:28:08;97132.69;;;12.48
72054;BMP280;59918;51.280;7.950;2023-03-30T02:30:34;97145.13;;;12.51
72054;BMP280;59918;51.280;7.950;2023-03-30T02:33:00;97149.25;;;12.52
72054;BMP280;59918;51.280;7.950;2023-03-30T02:50:09;97115.78;;;12.69
72054;BMP280;59918;51.280;7.950;2023-03-30T02:55:12;97115.16;;;12.78
72054;BMP280;59918;51.280;7.950;2023-03-30T02:57:57;97100.25;;;12.80
72054;BMP280;59918;51.280;7.950;2023-03-30T03:00:33;97083.28;;;12.84
72054;BMP280;59918;51.280;7.950;2023-03-30T03:03:03;97059.84;;;12.85
72054;BMP280;59918;51.280;7.950;2023-03-30T03:05:30;97061.16;;;12.88
72054;BMP280;59918;51.280;7.950;2023-03-30T03:07:55;97071.03;;;12.91
72054;BMP280;59918;51.280;7.950;2023-03-30T03:10:20;97050.44;;;12.96
72054;BMP280;59918;51.280;7.950;2023-03-30T03:12:45;97040.59;;;12.93
72054;BMP280;59918;51.280;7.950;2023-03-30T03:15:10;97038.44;;;12.85
72054;BMP280;59918;51.280;7.950;2023-03-30T03:17:35;97041.94;;;12.79
72054;BMP280;59918;51.280;7.950;2023-03-30T03:20:01;97029.47;;;12.76
72054;BMP280;59918;51.280;7.950;2023-03-30T03:22:26;97039.38;;;12.79
72054;BMP280;59918;51.280;7.950;2023-03-30T03:24:51;97050.78;;;12.83
72054;BMP280;59918;51.280;7.950;2023-03-30T03:27:16;97055.22;;;12.87
72054;BMP280;59918;51.280;7.950;2023-03-30T03:29:42;97046.78;;;12.92
72054;BMP280;59918;51.280;7.950;2023-03-30T03:32:07;97035.69;;;12.91
72054;BMP280;59918;51.280;7.950;2023-03-30T03:34:32;97042.66;;;12.91
72054;BMP280;59918;51.280;7.950;2023-03-30T03:36:57;97042.66;;;12.91
72054;BMP280;59918;51.280;7.950;2023-03-30T03:39:23;97038.25;;;12.91
72054;BMP280;59918;51.280;7.950;2023-03-30T03:41:48;97050.94;;;12.93
72054;BMP280;59918;51.280;7.950;2023-03-30T03:44:13;97059.22;;;12.95
72054;BMP280;59918;51.280;7.950;2023-03-30T03:46:38;97055.38;;;12.97
72054;BMP280;59918;51.280;7.950;2023-03-30T03:49:03;97051.31;;;13.01
72054;BMP280;59918;51.280;7.950;2023-03-30T03:51:28;97031.97;;;13.04
72054;BMP280;59918;51.280;7.950;2023-03-30T03:53:54;97016.50;;;13.04
72054;BMP280;59918;51.280;7.950;2023-03-30T03:56:19;97009.28;;;13.06
72054;BMP280;59918;51.280;7.950;2023-03-30T03:58:44;97003.13;;;13.07
72054;BMP280;59918;51.280;7.950;2023-03-30T04:01:09;97004.69;;;13.08
72054;BMP280;59918;51.280;7.950;2023-03-30T04:03:34;96995.94;;;13.09
72054;BMP280;59918;51.280;7.950;2023-03-30T04:06:00;96993.81;;;13.06
72054;BMP280;59918;51.280;7.950;2023-03-30T04:08:25;97001.31;;;13.07
72054;BMP280;59918;51.280;7.950;2023-03-30T04:10:50;96992.03;;;13.06
72054;BMP280;59918;51.280;7.950;2023-03-30T04:13:15;97001.81;;;13.04
72054;BMP280;59918;51.280;7.950;2023-03-30T04:15:40;97001.97;;;12.98
72054;BMP280;59918;51.280;7.950;2023-03-30T04:18:05;97000.31;;;12.92
72054;BMP280;59918;51.280;7.950;2023-03-30T04:20:31;96998.16;;;12.84
72054;BMP280;59918;51.280;7.950;2023-03-30T04:22:56;97002.22;;;12.80
72054;BMP280;59918;51.280;7.950;2023-03-30T04:25:22;96991.03;;;12.75
72054;BMP280;59918;51.280;7.950;2023-03-30T04:27:48;96996.03;;;12.65
72054;BMP280;59918;51.280;7.950;2023-03-30T04:30:13;96994.63;;;12.57
72054;BMP280;59918;51.280;7.950;2023-03-30T04:32:38;96980.56;;;12.48
72054;BMP280;59918;51.280;7.950;2023-03-30T04:35:04;96980.22;;;12.45
72054;BMP280;59918;51.280;7.950;2023-03-30T04:37:29;96963.00;;;12.45
72054;BMP280;59918;51.280;7.950;2023-03-30T04:39:55;96968.16;;;12.45
72054;BMP280;59918;51.280;7.950;2023-03-30T04:42:21;96977.59;;;12.40
72054;BMP280;59918;51.280;7.950;2023-03-30T04:44:46;96974.16;;;12.35
72054;BMP280;59918;51.280;7.950;2023-03-30T04:47:11;96959.84;;;12.27
72054;BMP280;59918;51.280;7.950;2023-03-30T04:49:36;96961.31;;;12.23
72054;BMP280;59918;51.280;7.950;2023-03-30T04:52:01;96953.84;;;12.22
72054;BMP280;59918;51.280;7.950;2023-03-30T04:54:26;96962.81;;;12.19
72054;BMP280;59918;51.280;7.950;2023-03-30T04:56:54;96977.25;;;12.20
72054;BMP280;59918;51.280;7.950;2023-03-30T04:59:19;96961.31;;;12.23
72054;BMP280;59918;51.280;7.950;2023-03-30T05:01:44;96953.38;;;12.25
72054;BMP280;59918;51.280;7.950;2023-03-30T05:04:09;96961.31;;;12.23
72054;BMP280;59918;51.280;7.950;2023-03-30T05:06:35;96970.41;;;12.26
72054;BMP280;59918;51.280;7.950;2023-03-30T05:09:00;96976.66;;;12.30
72054;BMP280;59918;51.280;7.950;2023-03-30T05:11:25;96981.66;;;12.36
72054;BMP280;59918;51.280;7.950;2023-03-30T05:13:50;96977.91;;;12.43
72054;BMP280;59918;51.280;7.950;2023-03-30T05:16:15;96961.97;;;12.46
72054;BMP280;59918;51.280;7.950;2023-03-30T05:18:41;96962.28;;;12.50
72054;BMP280;59918;51.280;7.950;2023-03-30T05:21:06;96983.69;;;12.50
72054;BMP280;59918;51.280;7.950;2023-03-30T05:23:31;96973.69;;;12.54
72054;BMP280;59918;51.280;7.950;2023-03-30T05:25:56;96980.16;;;12.56
72054;BMP280;59918;51.280;7.950;2023-03-30T05:28:21;96963.44;;;12.59
72054;BMP280;59918;51.280;7.950;2023-03-30T05:30:51;96965.56;;;12.62
72054;BMP280;59918;51.280;7.950;2023-03-30T05:33:16;96964.84;;;12.66
72054;BMP280;59918;51.280;7.950;2023-03-30T05:35:41;96965.94;;;12.70
72054;BMP280;59918;51.280;7.950;2023-03-30T05:38:06;96968.81;;;12.74
72054;BMP280;59918;51.280;7.950;2023-03-30T05:40:32;96981.84;;;12.78
72054;BMP280;59918;51.280;7.950;2023-03-30T05:42:57;96987.28;;;12.82
72054;BMP280;59918;51.280;7.950;2023-03-30T05:45:22;96988.69;;;12.89
72054;BMP280;59918;51.280;7.950;2023-03-30T05:47:47;96994.47;;;12.96
72054;BMP280;59918;51.280;7.950;2023-03-30T05:50:12;96997.88;;;13.02
72054;BMP280;59918;51.280;7.950;2023-03-30T05:52:37;96997.19;;;13.06
72054;BMP280;59918;51.280;7.950;2023-03-30T05:55:03;96998.28;;;13.10
72054;BMP280;59918;51.280;7.950;2023-03-30T05:57:28;97004.28;;;13.15
72054;BMP280;59918;51.280;7.950;2023-03-30T05:59:53;97005.13;;;13.21
72054;BMP280;59918;51.280;7.950;2023-03-30T06:02:18;97005.44;;;13.24
72054;BMP280;59918;51.280;7.950;2023-03-30T06:04:43;97010.91;;;13.28
72054;BMP280;59918;51.280;7.950;2023-03-30T06:07:08;97011.47;;;13.30
72054;BMP280;59918;51.280;7.950;2023-03-30T06:09:33;97011.75;;;13.33
72054;BMP280;59918;51.280;7.950;2023-03-30T06:11:59;97003.28;;;13.38
72054;BMP280;59918;51.280;7.950;2023-03-30T06:14:24;97002.56;;;13.42
72054;BMP280;59918;51.280;7.950;2023-03-30T06:16:49;97005.91;;;13.43
72054;BMP280;59918;51.280;7.950;2023-03-30T06:19:14;97005.69;;;13.44
72054;BMP280;59918;51.280;7.950;2023-03-30T06:21:39;97006.22;;;13.46
72054;BMP280;59918;51.280;7.950;2023-03-30T06:24:04;96999.03;;;13.48
72054;BMP280;59918;51.280;7.950;2023-03-30T06:26:29;97005.28;;;13.52
72054;BMP280;59918;51.280;7.950;2023-03-30T06:28:55;97017.72;;;13.55
72054;BMP280;59918;51.280;7.950;2023-03-30T06:31:20;97007.13;;;13.56
72054;BMP280;59918;51.280;7.950;2023-03-30T06:33:45;97012.06;;;13.58
72054;BMP280;59918;51.280;7.950;2023-03-30T06:36:11;97005.56;;;13.55
72054;BMP280;59918;51.280;7.950;2023-03-30T06:38:36;97005.81;;;13.54
72054;BMP280;59918;51.280;7.950;2023-03-30T06:41:05;96990.84;;;13.56
72054;BMP280;59918;51.280;7.950;2023-03-30T06:43:30;96992.44;;;13.57
72054;BMP280;59918;51.280;7.950;2023-03-30T06:45:55;97001.50;;;13.59
72054;BMP280;59918;51.280;7.950;2023-03-30T06:48:21;96997.16;;;13.65
72054;BMP280;59918;51.280;7.950;2023-03-30T06:50:46;96990.00;;;13.72
72054;BMP280;59918;51.280;7.950;2023-03-30T06:53:11;96980.97;;;13.74
72054;BMP280;59918;51.280;7.950;2023-03-30T06:55:37;96988.03;;;13.79
72054;BMP280;59918;51.280;7.950;2023-03-30T06:58:02;96985.47;;;13.84
72054;BMP280;59918;51.280;7.950;2023-03-30T07:00:27;96993.09;;;13.95
72054;BMP280;59918;51.280;7.950;2023-03-30T07:02:52;96997.63;;;14.04
72054;BMP280;59918;51.280;7.950;2023-03-30T07:05:18;97009.03;;;14.08
72054;BMP280;59918;51.280;7.950;2023-03-30T07:07:43;96999.78;;;14.12
72054;BMP280;59918;51.280;7.950;2023-03-30T07:10:09;96997.50;;;14.16
72054;BMP280;59918;51.280;7.950;2023-03-30T07:12:38;96986.44;;;14.25
72054;BMP280;59918;51.280;7.950;2023-03-30T07:15:03;96994.88;;;14.42
72054;BMP280;59918;51.280;7.950;2023-03-30T07:17:29;96997.44;;;14.42
72054;BMP280;59918;51.280;7.950;2023-03-30T07:19:54;97011.59;;;14.34
72054;BMP280;59918;51.280;7.950;2023-03-30T07:22:19;97006.63;;;14.28
72054;BMP280;59918;51.280;7.950;2023-03-30T07:24:44;97005.59;;;14.29
72054;BMP280;59918;51.280;7.950;2023-03-30T07:27:09;97000.59;;;14.49
72054;BMP280;59918;51.280;7.950;2023-03-30T07:29:34;96989.22;;;14.81
72054;BMP280;59918;51.280;7.950;2023-03-30T07:32:00;96986.13;;;15.20
72054;BMP280;59918;51.280;7.950;2023-03-30T07:34:25;96978.22;;;15.41
72054;BMP280;59918;51.280;7.950;2023-03-30T07:36:50;97006.38;;;15.32
72054;BMP280;59918;51.280;7.950;2023-03-30T07:39:15;96995.53;;;15.35
72054;BMP280;59918;51.280;7.950;2023-03-30T07:41:40;96987.56;;;15.52
72054;BMP280;59918;51.280;7.950;2023-03-30T07:44:05;97003.91;;;15.62
72054;BMP280;59918;51.280;7.950;2023-03-30T07:46:30;96989.91;;;15.58
72054;BMP280;59918;51.280;7.950;2023-03-30T07:48:56;96981.84;;;15.45
72054;BMP280;59918;51.280;7.950;2023-03-30T07:51:21;96992.41;;;15.38
72054;BMP280;59918;51.280;7.950;2023-03-30T07:53:46;96993.56;;;15.57
72054;BMP280;59918;51.280;7.950;2023-03-30T07:56:11;96988.50;;;16.06
72054;BMP280;59918;51.280;7.950;2023-03-30T07:58:39;96983.94;;;16.53
72054;BMP280;59918;51.280;7.950;2023-03-30T08:01:04;96988.34;;;16.62
72054;BMP280;59918;51.280;7.950;2023-03-30T08:03:30;96988.06;;;16.69
72054;BMP280;59918;51.280;7.950;2023-03-30T08:05:56;96995.31;;;16.72
72054;BMP280;59918;51.280;7.950;2023-03-30T08:08:22;96990.13;;;16.62
72054;BMP280;59918;51.280;7.950;2023-03-30T08:10:47;96983.41;;;16.56
72054;BMP280;59918;51.280;7.950;2023-03-30T08:13:12;96980.00;;;16.41
72054;BMP280;59918;51.280;7.950;2023-03-30T08:15:38;96991.94;;;16.22
72054;BMP280;59918;51.280;7.950;2023-03-30T08:18:03;96989.81;;;16.14
72054;BMP280;59918;51.280;7.950;2023-03-30T08:20:28;96998.38;;;16.14
72054;BMP280;59918;51.280;7.950;2023-03-30T08:22:53;96999.13;;;15.90
72054;BMP280;59918;51.280;7.950;2023-03-30T08:25:18;96988.72;;;15.80
72054;BMP280;59918;51.280;7.950;2023-03-30T08:27:43;96983.19;;;15.57
72054;BMP280;59918;51.280;7.950;2023-03-30T08:30:09;96997.66;;;15.48
72054;BMP280;59918;51.280;7.950;2023-03-30T08:32:34;96991.06;;;15.82
72054;BMP280;59918;51.280;7.950;2023-03-30T08:34:59;96999.47;;;16.38
72054;BMP280;59918;51.280;7.950;2023-03-30T08:37:24;96992.22;;;16.55
72054;BMP280;59918;51.280;7.950;2023-03-30T08:39:49;96990.66;;;16.54
72054;BMP280;59918;51.280;7.950;2023-03-30T08:44:58;97003.09;;;16.17
72054;BMP280;59918;51.280;7.950;2023-03-30T08:47:34;96995.25;;;16.12
72054;BMP280;59918;51.280;7.950;2023-03-30T08:50:07;96990.91;;;16.18
72054;BMP280;59918;51.280;7.950;2023-03-30T08:52:35;96992.16;;;16.15
72054;BMP280;59918;51.280;7.950;2023-03-30T08:55:00;97001.47;;;16.06
72054;BMP280;59918;51.280;7.950;2023-03-30T08:59:52;97005.25;;;15.65
72054;BMP280;59918;51.280;7.950;2023-03-30T09:02:22;97009.09;;;15.62
72054;BMP280;59918;51.280;7.950;2023-03-30T09:07:16;97005.91;;;16.16
72054;BMP280;59918;51.280;7.950;2023-03-30T09:09:43;96993.16;;;16.05
72054;BMP280;59918;51.280;7.950;2023-03-30T09:12:15;97003.00;;;15.93
72054;BMP280;59918;51.280;7.950;2023-03-30T09:14:47;97023.75;;;15.93
72054;BMP280;59918;51.280;7.950;2023-03-30T09:17:18;97024.00;;;15.96
72054;BMP280;59918;51.280;7.950;2023-03-30T09:19:53;97077.31;;;15.72
72054;BMP280;59918;51.280;7.950;2023-03-30T09:22:20;97092.13;;;15.00
72054;BMP280;59918;51.280;7.950;2023-03-30T09:24:48;97100.09;;;13.73
72054;BMP280;59918;51.280;7.950;2023-03-30T09:27:27;97092.84;;;12.83
72054;BMP280;59918;51.280;7.950;2023-03-30T09:29:53;97105.09;;;12.49
72054;BMP280;59918;51.280;7.950;2023-03-30T09:32:24;97109.81;;;12.24
72054;BMP280;59918;51.280;7.950;2023-03-30T09:37:20;97114.44;;;12.11
72054;BMP280;59918;51.280;7.950;2023-03-30T09:39:46;97119.03;;;12.20
72054;BMP280;59918;51.280;7.950;2023-03-30T09:47:33;97118.09;;;11.99
72054;BMP280;59918;51.280;7.950;2023-03-30T09:49:57;97107.47;;;12.23
72054;BMP280;59918;51.280;7.950;2023-03-30T09:52:23;97109.13;;;12.29
72054;BMP280;59918;51.280;7.950;2023-03-30T09:54:48;97096.19;;;12.40
72054;BMP280;59918;51.280;7.950;2023-03-30T09:57:47;97099.34;;;12.58
72054;BMP280;59918;51.280;7.950;2023-03-30T10:00:21;97097.63;;;12.64
72054;BMP280;59918;51.280;7.950;2023-03-30T10:02:53;97103.97;;;12.73
72054;BMP280;59918;51.280;7.950;2023-03-30T10:05:19;97106.97;;;12.81
72054;BMP280;59918;51.280;7.950;2023-03-30T10:07:44;97102.59;;;12.98
72054;BMP280;59918;51.280;7.950;2023-03-30T10:12:41;97107.78;;;12.70
72054;BMP280;59918;51.280;7.950;2023-03-30T10:15:09;97108.97;;;12.63
72054;BMP280;59918;51.280;7.950;2023-03-30T10:17:38;97113.81;;;12.59
72054;BMP280;59918;51.280;7.950;2023-03-30T10:23:20;97121.28;;;12.61
72054;BMP280;59918;51.280;7.950;2023-03-30T10:25:39;97130.59;;;12.62
72054;BMP280;59918;51.280;7.950;2023-03-30T10:28:05;97126.22;;;12.62
72054;BMP280;59918;51.280;7.950;2023-03-30T10:30:39;97154.34;;;12.47
72054;BMP280;59918;51.280;7.950;2023-03-30T10:33:04;97199.84;;;12.03
72054;BMP280;59918;51.280;7.950;2023-03-30T10:35:35;97209.94;;;11.48
72054;BMP280;59918;51.280;7.950;2023-03-30T10:38:00;97215.19;;;11.01
72054;BMP280;59918;51.280;7.950;2023-03-30T10:40:30;97195.06;;;10.69
72054;BMP280;59918;51.280;7.950;2023-03-30T10:42:56;97211.03;;;10.59
72054;BMP280;59918;51.280;7.950;2023-03-30T10:45:37;97212.47;;;10.56
72054;BMP280;59918;51.280;7.950;2023-03-30T10:53:27;97222.06;;;10.31
72054;BMP280;59918;51.280;7.950;2023-03-30T11:03:30;97184.78;;;9.86
72054;BMP280;59918;51.280;7.950;2023-03-30T11:05:57;97176.09;;;9.87
72054;BMP280;59918;51.280;7.950;2023-03-30T11:08:28;97151.94;;;9.95
72054;BMP280;59918;51.280;7.950;2023-03-30T11:10:55;97148.69;;;10.17
72054;BMP280;59918;51.280;7.950;2023-03-30T11:13:21;97120.75;;;10.38
72054;BMP280;59918;51.280;7.950;2023-03-30T11:15:48;97130.09;;;11.25
72054;BMP280;59918;51.280;7.950;2023-03-30T11:19:16;97147.94;;;14.39
72054;BMP280;59918;51.280;7.950;2023-03-30T11:23:53;97140.97;;;18.51
72054;BMP280;59918;51.280;7.950;2023-03-30T11:26:21;97159.94;;;16.80
72054;BMP280;59918;51.280;7.950;2023-03-30T11:31:34;97158.75;;;13.93
72054;BMP280;59918;51.280;7.950;2023-03-30T11:34:13;97172.75;;;13.60
72054;BMP280;59918;51.280;7.950;2023-03-30T11:36:59;97148.66;;;15.80
72054;BMP280;59918;51.280;7.950;2023-03-30T11:39:30;97146.66;;;17.81
72054;BMP280;59918;51.280;7.950;2023-03-30T11:44:23;97155.53;;;17.50
72054;BMP280;59918;51.280;7.950;2023-03-30T11:47:35;97161.53;;;17.70
72054;BMP280;59918;51.280;7.950;2023-03-30T11:49:46;97157.13;;;18.43
72054;BMP280;59918;51.280;7.950;2023-03-30T12:00:25;97140.00;;;21.35
72054;BMP280;59918;51.280;7.950;2023-03-30T12:05:45;97129.38;;;22.92
72054;BMP280;59918;51.280;7.950;2023-03-30T12:10:54;97185.19;;;20.45
72054;BMP280;59918;51.280;7.950;2023-03-30T12:13:21;97157.44;;;19.84
72054;BMP280;59918;51.280;7.950;2023-03-30T12:15:57;97148.44;;;21.91
72054;BMP280;59918;51.280;7.950;2023-03-30T12:23:37;97174.03;;;19.37
72054;BMP280;59918;51.280;7.950;2023-03-30T12:29:17;97174.41;;;18.20
72054;BMP280;59918;51.280;7.950;2023-03-30T12:31:23;97179.22;;;17.19
72054;BMP280;59918;51.280;7.950;2023-03-30T12:34:08;97162.50;;;16.71
72054;BMP280;59918;51.280;7.950;2023-03-30T12:36:37;97162.94;;;16.38
72054;BMP280;59918;51.280;7.950;2023-03-30T12:39:04;97175.41;;;15.90
72054;BMP280;59918;51.280;7.950;2023-03-30T12:41:40;97161.00;;;15.68
72054;BMP280;59918;51.280;7.950;2023-03-30T12:49:10;97148.97;;;16.54
72054;BMP280;59918;51.280;7.950;2023-03-30T13:01:50;97136.03;;;17.03
72054;BMP280;59918;51.280;7.950;2023-03-30T13:04:20;97135.91;;;16.24
72054;BMP280;59918;51.280;7.950;2023-03-30T13:07:07;97141.06;;;15.69
72054;BMP280;59918;51.280;7.950;2023-03-30T13:09:32;97140.34;;;15.37
72054;BMP280;59918;51.280;7.950;2023-03-30T13:14:39;97144.41;;;14.71
72054;BMP280;59918;51.280;7.950;2023-03-30T13:17:16;97171.72;;;14.36
72054;BMP280;59918;51.280;7.950;2023-03-30T13:19:46;97144.59;;;13.80
72054;BMP280;59918;51.280;7.950;2023-03-30T13:24:51;97186.59;;;13.21
72054;BMP280;59918;51.280;7.950;2023-03-30T13:29:51;97198.56;;;12.28
72054;BMP280;59918;51.280;7.950;2023-03-30T13:33:00;97206.47;;;11.99
72054;BMP280;59918;51.280;7.950;2023-03-30T13:43:18;97191.69;;;12.06
72054;BMP280;59918;51.280;7.950;2023-03-30T13:48:32;97155.78;;;14.96
72054;BMP280;59918;51.280;7.950;2023-03-30T13:51:02;97182.00;;;15.71
72054;BMP280;59918;51.280;7.950;2023-03-30T13:53:30;97156.91;;;16.23
72054;BMP280;59918;51.280;7.950;2023-03-30T13:55:56;97137.63;;;17.49
72054;BMP280;59918;51.280;7.950;2023-03-30T14:00:56;97154.16;;;18.12
72054;BMP280;59918;51.280;7.950;2023-03-30T14:03:41;97156.22;;;16.52
72054;BMP280;59918;51.280;7.950;2023-03-30T14:06:12;97162.66;;;15.43
72054;BMP280;59918;51.280;7.950;2023-03-30T14:08:39;97153.91;;;15.18
72054;BMP280;59918;51.280;7.950;2023-03-30T14:11:11;97148.44;;;16.52
72054;BMP280;59918;51.280;7.950;2023-03-30T14:13:37;97130.19;;;19.67
72054;BMP280;59918;51.280;7.950;2023-03-30T14:16:02;97140.94;;;18.94
72054;BMP280;59918;51.280;7.950;2023-03-30T14:18:28;97142.34;;;18.34
72054;BMP280;59918;51.280;7.950;2023-03-30T14:20:55;97144.81;;;17.96
72054;BMP280;59918;51.280;7.950;2023-03-30T14:25:52;97164.06;;;16.77
72054;BMP280;59918;51.280;7.950;2023-03-30T14:28:18;97167.06;;;16.34
72054;BMP280;59918;51.280;7.950;2023-03-30T14:30:54;97184.00;;;16.01
72054;BMP280;59918;51.280;7.950;2023-03-30T14:33:20;97164.97;;;15.44
72054;BMP280;59918;51.280;7.950;2023-03-30T14:35:52;97164.28;;;15.18
72054;BMP280;59918;51.280;7.950;2023-03-30T14:38:21;97176.94;;;14.88
72054;BMP280;59918;51.280;7.950;2023-03-30T14:40:47;97175.13;;;14.62
72054;BMP280;59918;51.280;7.950;2023-03-30T14:43:14;97175.06;;;14.58
72054;BMP280;59918;51.280;7.950;2023-03-30T14:45:40;97175.94;;;14.94
72054;BMP280;59918;51.280;7.950;2023-03-30T14:48:06;97177.88;;;15.08
72054;BMP280;59918;51.280;7.950;2023-03-30T14:50:31;97162.00;;;15.26
72054;BMP280;59918;51.280;7.950;2023-03-30T14:52:56;97157.09;;;17.56
72054;BMP280;59918;51.280;7.950;2023-03-30T14:55:22;97150.16;;;19.20
72054;BMP280;59918;51.280;7.950;2023-03-30T14:57:48;97134.03;;;19.46
72054;BMP280;59918;51.280;7.950;2023-03-30T15:00:14;97138.59;;;19.64
72054;BMP280;59918;51.280;7.950;2023-03-30T15:02:40;97121.66;;;19.33
72054;BMP280;59918;51.280;7.950;2023-03-30T15:05:06;97132.13;;;18.47
72054;BMP280;59918;51.280;7.950;2023-03-30T15:07:32;97132.63;;;18.49
72054;BMP280;59918;51.280;7.950;2023-03-30T15:09:58;97118.59;;;21.02
72054;BMP280;59918;51.280;7.950;2023-03-30T15:12:38;97103.09;;;22.35
72054;BMP280;59918;51.280;7.950;2023-03-30T15:15:06;97113.16;;;21.30
72054;BMP280;59918;51.280;7.950;2023-03-30T15:17:32;97131.03;;;19.62
72054;BMP280;59918;51.280;7.950;2023-03-30T15:19:59;97125.84;;;18.53
72054;BMP280;59918;51.280;7.950;2023-03-30T15:24:54;97137.44;;;18.23
72054;BMP280;59918;51.280;7.950;2023-03-30T15:27:20;97137.38;;;19.23
72054;BMP280;59918;51.280;7.950;2023-03-30T15:29:46;97138.25;;;18.18
72054;BMP280;59918;51.280;7.950;2023-03-30T15:34:36;97137.84;;;16.83
72054;BMP280;59918;51.280;7.950;2023-03-30T15:37:21;97145.75;;;16.17
72054;BMP280;59918;51.280;7.950;2023-03-30T15:39:47;97149.66;;;15.79
72054;BMP280;59918;51.280;7.950;2023-03-30T15:42:12;97138.28;;;15.39
72054;BMP280;59918;51.280;7.950;2023-03-30T15:44:47;97120.88;;;15.34
72054;BMP280;59918;51.280;7.950;2023-03-30T15:47:23;97092.50;;;18.93
72054;BMP280;59918;51.280;7.950;2023-03-30T15:49:49;97109.75;;;21.61
72054;BMP280;59918;51.280;7.950;2023-03-30T15:52:18;97119.34;;;22.59
72054;BMP280;59918;51.280;7.950;2023-03-30T15:54:50;97094.59;;;22.16
72054;BMP280;59918;51.280;7.950;2023-03-30T15:57:23;97114.13;;;22.45
72054;BMP280;59918;51.280;7.950;2023-03-30T15:59:52;97128.09;;;21.88
72054;BMP280;59918;51.280;7.950;2023-03-30T16:02:19;97114.06;;;21.07
72054;BMP280;59918;51.280;7.950;2023-03-30T16:04:45;97119.38;;;20.84
72054;BMP280;59918;51.280;7.950;2023-03-30T16:07:15;97126.44;;;19.21
72054;BMP280;59918;51.280;7.950;2023-03-30T16:09:40;97124.63;;;17.58
72054;BMP280;59918;51.280;7.950;2023-03-30T16:12:05;97132.81;;;16.32
72054;BMP280;59918;51.280;7.950;2023-03-30T16:14:32;97129.53;;;15.50
72054;BMP280;59918;51.280;7.950;2023-03-30T16:16:57;97127.56;;;14.99
72054;BMP280;59918;51.280;7.950;2023-03-30T16:19:22;97126.50;;;14.64
72054;BMP280;59918;51.280;7.950;2023-03-30T16:21:47;97127.75;;;14.36
72054;BMP280;59918;51.280;7.950;2023-03-30T16:24:12;97129.34;;;14.16
72054;BMP280;59918;51.280;7.950;2023-03-30T16:26:37;97131.50;;;14.02
72054;BMP280;59918;51.280;7.950;2023-03-30T16:29:03;97130.81;;;13.90
72054;BMP280;59918;51.280;7.950;2023-03-30T16:31:28;97133.50;;;13.79
72054;BMP280;59918;51.280;7.950;2023-03-30T16:33:53;97145.97;;;13.66
72054;BMP280;59918;51.280;7.950;2023-03-30T16:36:19;97139.50;;;13.47
72054;BMP280;59918;51.280;7.950;2023-03-30T16:38:45;97129.66;;;13.12
72054;BMP280;59918;51.280;7.950;2023-03-30T16:41:11;97139.97;;;12.79